East Quilcene, Washington
Current Conditions -  °F | °C
As of 6:35 AM on Thursday 27 Nov 2014 (Local Time) from KPWT Reporting Station
Overcast Overcast  
Wind Chill: 52°   Ceiling: 400
Heat Index: 52°   Visibility: 10mi
Dew Point: 52°   Wind: 21mph
Humidity: 100%   Direction: 170°S
Pressure: 29.83"   Gusts: 28mph
Location:  47.8412°N, 122.841°W
Report Text: KPWT 271435Z AUTO 17018G24KT 10SM BKN004 OVC019 11/11 A2983 RMK AO1 P0001
Loading
Personal Weather Stations






























Interactive Weather Map New forecast layout! Learn more

10-Day Weather Forecast

Advertisements
Track Severe Weather on mobile